Time;durP1;ratioP1;P1;durP2;ratioP2;P2;SDS_P1;SDS_P2;PMS_P1;PMS_P2;Temp;Humidity;BMP_temperature;BMP_pressure;BME280_temperature;BME280_humidity;BME280_pressure;Samples;Min_cycle;Max_cycle;Signal;HPM_P1;HPM_P2
2024/03/24 00:01:05;;;;;;;8.90;2.07;;;;;;;;;;5012108;28;20409;-76
2024/03/24 00:03:31;;;;;;;5.83;2.60;;;;;;;;;;5012602;28;20772;-76
2024/03/24 00:05:57;;;;;;;7.37;2.70;;;;;;;;;;5012302;28;20499;-76
2024/03/24 00:08:23;;;;;;;6.37;1.97;;;;;;;;;;5011640;28;20564;-79
2024/03/24 00:10:49;;;;;;;5.47;2.60;;;;;;;;;;5011342;28;20789;-78
2024/03/24 00:13:15;;;;;;;6.57;2.20;;;;;;;;;;5012689;28;20872;-77
2024/03/24 00:15:41;;;;;;;4.57;4.10;;;;;;;;;;5014369;28;20457;-75
2024/03/24 00:18:07;;;;;;;3.20;1.03;;;;;;;;;;5014776;28;20461;-78
2024/03/24 00:20:34;;;;;;;2.77;1.53;;;;;;;;;;5015723;28;20464;-79
2024/03/24 00:23:00;;;;;;;3.80;2.40;;;;;;;;;;5016409;28;20422;-77
2024/03/24 00:25:26;;;;;;;4.50;1.57;;;;;;;;;;5015950;28;20421;-77
2024/03/24 00:27:52;;;;;;;3.93;1.90;;;;;;;;;;5015993;28;20424;-77
2024/03/24 00:30:18;;;;;;;5.83;2.53;;;;;;;;;;5015865;28;20452;-78
2024/03/24 00:32:44;;;;;;;8.43;1.93;;;;;;;;;;5015785;28;20880;-77
2024/03/24 00:35:10;;;;;;;5.70;2.87;;;;;;;;;;5015502;28;20901;-77
2024/03/24 00:37:38;;;;;;;3.73;1.80;;;;;;;;;;5015752;28;20445;-78
2024/03/24 00:40:05;;;;;;;3.47;1.80;;;;;;;;;;5015759;28;20415;-77
2024/03/24 00:42:31;;;;;;;4.93;2.33;;;;;;;;;;5015784;28;20772;-76
2024/03/24 00:44:56;;;;;;;6.33;2.50;;;;;;;;;;5015262;28;20415;-76
2024/03/24 00:47:22;;;;;;;4.47;1.80;;;;;;;;;;5014784;28;20423;-77
2024/03/24 00:49:48;;;;;;;5.10;1.70;;;;;;;;;;5014313;28;20525;-76
2024/03/24 00:52:14;;;;;;;2.60;1.70;;;;;;;;;;5015002;28;21001;-78
2024/03/24 00:54:40;;;;;;;3.77;2.30;;;;;;;;;;5015186;28;20425;-76
2024/03/24 00:57:06;;;;;;;5.87;2.27;;;;;;;;;;5012997;28;20426;-79
2024/03/24 00:59:32;;;;;;;7.27;2.17;;;;;;;;;;5005515;28;20527;-76
2024/03/24 01:01:58;;;;;;;6.87;2.40;;;;;;;;;;5009268;28;20421;-78
2024/03/24 01:04:24;;;;;;;4.70;1.67;;;;;;;;;;5014594;28;20475;-76
2024/03/24 01:06:50;;;;;;;6.27;3.73;;;;;;;;;;5014961;28;20409;-78
2024/03/24 01:09:15;;;;;;;6.13;2.63;;;;;;;;;;5014794;28;20453;-76
2024/03/24 01:11:41;;;;;;;3.83;2.00;;;;;;;;;;5014739;28;20402;-79
2024/03/24 01:14:07;;;;;;;6.27;3.50;;;;;;;;;;5014508;28;20509;-77
2024/03/24 01:16:33;;;;;;;7.77;3.23;;;;;;;;;;5013630;28;20449;-79
2024/03/24 01:18:59;;;;;;;4.57;1.87;;;;;;;;;;5014500;28;20452;-77
2024/03/24 01:21:25;;;;;;;4.67;2.30;;;;;;;;;;5014199;28;20425;-76
2024/03/24 01:23:51;;;;;;;4.47;2.73;;;;;;;;;;5014605;28;20414;-76
2024/03/24 01:26:17;;;;;;;5.43;2.17;;;;;;;;;;5014452;28;20829;-76
2024/03/24 01:28:43;;;;;;;5.07;3.13;;;;;;;;;;5014434;28;20766;-77
2024/03/24 01:31:09;;;;;;;4.90;2.97;;;;;;;;;;5014585;28;20424;-79
2024/03/24 01:33:35;;;;;;;5.37;2.97;;;;;;;;;;5014564;28;20470;-77
2024/03/24 01:36:01;;;;;;;5.77;3.00;;;;;;;;;;5014045;28;20965;-76
2024/03/24 01:38:26;;;;;;;7.93;2.50;;;;;;;;;;5014582;28;20903;-78
2024/03/24 01:40:52;;;;;;;4.77;3.17;;;;;;;;;;5014308;28;20481;-81
2024/03/24 01:43:18;;;;;;;6.03;2.70;;;;;;;;;;5014144;28;20957;-76
2024/03/24 01:45:49;;;;;;;4.33;2.93;;;;;;;;;;5011553;28;20434;-80
2024/03/24 01:48:15;;;;;;;4.83;2.20;;;;;;;;;;5013725;28;20876;-80
2024/03/24 01:50:41;;;;;;;6.90;3.63;;;;;;;;;;5013451;28;20438;-76
2024/03/24 01:53:10;;;;;;;4.23;3.70;;;;;;;;;;5013667;28;20512;-78
2024/03/24 01:55:36;;;;;;;6.90;3.53;;;;;;;;;;5012530;28;20504;-78
2024/03/24 01:58:03;;;;;;;6.50;4.03;;;;;;;;;;5013699;28;20472;-78
2024/03/24 02:00:29;;;;;;;8.67;4.20;;;;;;;;;;5012529;28;20420;-79
2024/03/24 02:02:55;;;;;;;4.77;3.60;;;;;;;;;;5012834;28;20817;-79
2024/03/24 02:05:24;;;;;;;7.70;5.60;;;;;;;;;;5013412;28;20413;-77
2024/03/24 02:07:50;;;;;;;4.60;3.83;;;;;;;;;;5013753;28;20471;-76
2024/03/24 02:10:16;;;;;;;7.70;4.77;;;;;;;;;;5014183;28;20452;-76
2024/03/24 02:12:42;;;;;;;11.17;3.80;;;;;;;;;;5013551;28;20507;-76
2024/03/24 02:15:08;;;;;;;6.37;3.43;;;;;;;;;;5011480;28;20831;-75
2024/03/24 02:17:34;;;;;;;5.03;3.47;;;;;;;;;;5013527;28;20779;-78
2024/03/24 02:20:00;;;;;;;6.80;4.70;;;;;;;;;;5012898;28;20422;-77
2024/03/24 02:22:26;;;;;;;7.53;4.30;;;;;;;;;;5029119;28;20484;-75
2024/03/24 02:24:52;;;;;;;6.40;3.83;;;;;;;;;;5013757;28;20774;-76
2024/03/24 02:27:18;;;;;;;5.83;4.70;;;;;;;;;;5013961;28;20426;-75
2024/03/24 02:29:44;;;;;;;10.97;3.90;;;;;;;;;;5013667;28;20419;-77
2024/03/24 02:32:09;;;;;;;9.33;4.87;;;;;;;;;;5013570;28;20527;-75
2024/03/24 02:34:35;;;;;;;7.83;4.83;;;;;;;;;;5013773;28;20422;-78
2024/03/24 02:37:01;;;;;;;6.93;4.03;;;;;;;;;;5013841;28;20549;-76
2024/03/24 02:39:28;;;;;;;10.40;5.40;;;;;;;;;;5013482;28;20414;-76
2024/03/24 02:41:54;;;;;;;6.20;4.40;;;;;;;;;;5013499;28;20406;-76
2024/03/24 02:44:20;;;;;;;6.77;4.47;;;;;;;;;;5013561;28;20406;-76
2024/03/24 02:46:46;;;;;;;9.33;4.00;;;;;;;;;;5013578;28;20476;-81
2024/03/24 02:49:12;;;;;;;7.10;4.20;;;;;;;;;;5013154;28;20512;-79
2024/03/24 02:51:38;;;;;;;11.20;5.30;;;;;;;;;;5013505;28;20406;-76
2024/03/24 02:54:04;;;;;;;11.43;5.10;;;;;;;;;;5013625;28;20889;-76
2024/03/24 02:56:30;;;;;;;7.77;5.43;;;;;;;;;;5028586;28;20940;-76
2024/03/24 02:58:56;;;;;;;7.67;4.80;;;;;;;;;;5013552;28;20414;-78
2024/03/24 03:01:22;;;;;;;8.33;5.17;;;;;;;;;;5013366;28;20416;-76
2024/03/24 03:03:48;;;;;;;7.60;3.67;;;;;;;;;;5012940;28;20808;-80
2024/03/24 03:06:14;;;;;;;5.80;4.73;;;;;;;;;;5013295;28;20440;-79
2024/03/24 03:08:40;;;;;;;15.20;5.47;;;;;;;;;;5013212;28;20418;-77
2024/03/24 03:11:06;;;;;;;8.87;5.20;;;;;;;;;;5013260;28;20434;-78
2024/03/24 03:13:32;;;;;;;9.93;5.20;;;;;;;;;;5011946;28;20564;-77
2024/03/24 03:15:58;;;;;;;8.37;5.03;;;;;;;;;;5013057;28;20893;-77
2024/03/24 03:18:24;;;;;;;9.40;5.07;;;;;;;;;;5013182;28;20455;-81
2024/03/24 03:20:50;;;;;;;8.43;4.37;;;;;;;;;;5012772;28;20493;-79
2024/03/24 03:23:16;;;;;;;8.27;5.00;;;;;;;;;;5013192;28;20767;-78
2024/03/24 03:25:42;;;;;;;5.90;4.50;;;;;;;;;;5011919;28;20418;-76
2024/03/24 03:28:08;;;;;;;6.97;5.20;;;;;;;;;;5013021;28;20515;-76
2024/03/24 03:30:34;;;;;;;10.67;4.90;;;;;;;;;;5011867;28;20450;-76
2024/03/24 03:33:00;;;;;;;7.90;5.53;;;;;;;;;;5012912;28;20524;-76
2024/03/24 03:35:25;;;;;;;12.17;6.87;;;;;;;;;;5012613;28;20406;-77
2024/03/24 03:37:51;;;;;;;8.80;5.30;;;;;;;;;;5012946;28;20944;-78
2024/03/24 03:40:17;;;;;;;8.30;5.40;;;;;;;;;;5012919;28;20410;-77
2024/03/24 03:42:43;;;;;;;6.00;4.87;;;;;;;;;;5013016;28;20418;-76
2024/03/24 03:45:10;;;;;;;11.03;7.13;;;;;;;;;;5013014;28;20914;-78
2024/03/24 03:47:37;;;;;;;12.70;7.13;;;;;;;;;;5012982;28;20433;-77
2024/03/24 03:50:03;;;;;;;7.67;6.20;;;;;;;;;;5012483;28;20857;-76
2024/03/24 03:52:29;;;;;;;10.90;7.63;;;;;;;;;;5016633;28;20497;-76
2024/03/24 03:55:11;;;;;;;13.43;7.57;;;;;;;;;;5015417;28;20430;-76
2024/03/24 03:57:36;;;;;;;11.30;7.80;;;;;;;;;;5016801;28;20434;-77
2024/03/24 04:00:06;;;;;;;12.23;9.20;;;;;;;;;;5016609;28;20495;-79
2024/03/24 04:02:32;;;;;;;10.37;7.87;;;;;;;;;;5015221;28;20472;-76
2024/03/24 04:04:58;;;;;;;11.90;7.73;;;;;;;;;;5016091;28;20809;-78
2024/03/24 04:07:26;;;;;;;12.70;9.70;;;;;;;;;;5016866;28;20466;-79
2024/03/24 04:09:51;;;;;;;15.30;9.00;;;;;;;;;;5016522;28;20402;-78
2024/03/24 04:12:17;;;;;;;14.47;10.70;;;;;;;;;;5016322;28;20457;-77
2024/03/24 04:14:43;;;;;;;13.43;10.50;;;;;;;;;;5016297;28;20469;-79
2024/03/24 04:17:09;;;;;;;13.83;9.87;;;;;;;;;;5016302;28;20410;-77
2024/03/24 04:19:35;;;;;;;13.77;10.37;;;;;;;;;;5015852;28;20447;-78
2024/03/24 04:22:01;;;;;;;13.13;11.00;;;;;;;;;;5016189;28;20465;-76
2024/03/24 04:24:27;;;;;;;12.93;10.27;;;;;;;;;;5016070;28;20513;-76
2024/03/24 04:26:53;;;;;;;15.57;9.47;;;;;;;;;;5016043;28;20493;-78
2024/03/24 04:29:19;;;;;;;16.23;10.40;;;;;;;;;;5016032;28;20965;-76
2024/03/24 04:31:45;;;;;;;13.50;11.17;;;;;;;;;;5016002;28;20406;-76
2024/03/24 04:34:10;;;;;;;10.93;9.60;;;;;;;;;;5015678;28;20438;-77
2024/03/24 04:36:36;;;;;;;17.00;11.30;;;;;;;;;;5016021;28;20414;-77
2024/03/24 04:39:03;;;;;;;13.70;11.30;;;;;;;;;;5015837;28;20422;-78
2024/03/24 04:41:29;;;;;;;12.90;11.50;;;;;;;;;;5015721;28;20417;-77
2024/03/24 04:43:55;;;;;;;14.30;12.37;;;;;;;;;;5015644;28;20414;-76
2024/03/24 04:46:21;;;;;;;14.60;11.80;;;;;;;;;;5015611;28;20414;-78
2024/03/24 04:48:47;;;;;;;14.93;11.37;;;;;;;;;;5015299;28;20469;-77
2024/03/24 04:51:13;;;;;;;16.23;12.60;;;;;;;;;;5015589;28;20423;-76
2024/03/24 04:53:40;;;;;;;17.40;14.40;;;;;;;;;;5015472;28;20908;-75
2024/03/24 04:56:06;;;;;;;17.20;12.30;;;;;;;;;;5015432;28;20409;-75
2024/03/24 04:58:32;;;;;;;15.20;13.60;;;;;;;;;;5015221;28;20419;-75
2024/03/24 05:00:58;;;;;;;18.60;13.47;;;;;;;;;;5014856;28;20497;-76
2024/03/24 05:03:24;;;;;;;16.77;12.73;;;;;;;;;;5013645;28;20934;-76
2024/03/24 05:05:50;;;;;;;17.20;14.73;;;;;;;;;;5015262;28;20559;-75
2024/03/24 05:08:15;;;;;;;16.80;12.80;;;;;;;;;;5015257;28;20419;-78
2024/03/24 05:10:42;;;;;;;16.30;13.53;;;;;;;;;;5015160;28;20775;-78
2024/03/24 05:13:08;;;;;;;15.60;12.40;;;;;;;;;;5015011;28;20793;-78
2024/03/24 05:15:36;;;;;;;15.90;12.17;;;;;;;;;;5014904;28;20468;-76
2024/03/24 05:18:04;;;;;;;16.40;12.83;;;;;;;;;;5015021;28;20851;-81
2024/03/24 05:20:29;;;;;;;21.40;13.60;;;;;;;;;;5014663;28;20426;-80
2024/03/24 05:22:55;;;;;;;16.83;14.33;;;;;;;;;;5014946;28;20501;-78
2024/03/24 05:25:22;;;;;;;15.43;11.97;;;;;;;;;;5014858;28;20969;-79
2024/03/24 05:27:48;;;;;;;17.03;14.17;;;;;;;;;;5014893;28;20410;-77
2024/03/24 05:30:14;;;;;;;15.67;13.97;;;;;;;;;;5014807;28;20406;-76
2024/03/24 05:32:40;;;;;;;16.33;12.10;;;;;;;;;;5013373;28;20531;-77
2024/03/24 05:35:06;;;;;;;17.37;13.57;;;;;;;;;;5014545;28;20795;-77
2024/03/24 05:37:32;;;;;;;17.57;13.73;;;;;;;;;;5014710;28;20791;-78
2024/03/24 05:39:58;;;;;;;15.40;13.43;;;;;;;;;;5014525;28;20495;-78
2024/03/24 05:42:24;;;;;;;18.30;11.33;;;;;;;;;;5014640;28;20414;-79
2024/03/24 05:44:51;;;;;;;13.27;11.93;;;;;;;;;;5014695;28;20960;-77
2024/03/24 05:47:17;;;;;;;16.80;13.73;;;;;;;;;;5014445;28;20475;-75
2024/03/24 05:49:43;;;;;;;20.33;13.37;;;;;;;;;;5014039;28;20433;-79
2024/03/24 05:52:09;;;;;;;14.87;12.63;;;;;;;;;;5014238;28;21005;-76
2024/03/24 05:54:35;;;;;;;16.00;12.57;;;;;;;;;;5014366;28;20421;-80
2024/03/24 05:57:01;;;;;;;14.67;12.97;;;;;;;;;;5014131;28;20417;-79
2024/03/24 05:59:26;;;;;;;14.63;13.23;;;;;;;;;;5014292;28;20450;-78
2024/03/24 06:01:53;;;;;;;13.23;10.67;;;;;;;;;;5014256;28;20417;-78
2024/03/24 06:04:19;;;;;;;13.67;12.27;;;;;;;;;;5013806;28;20406;-76
2024/03/24 06:06:45;;;;;;;14.17;12.37;;;;;;;;;;5014178;28;20422;-78
2024/03/24 06:09:10;;;;;;;12.17;10.50;;;;;;;;;;5014016;28;20419;-78
2024/03/24 06:11:36;;;;;;;16.33;12.83;;;;;;;;;;5013961;28;20414;-76
2024/03/24 06:14:02;;;;;;;13.53;11.40;;;;;;;;;;5013006;28;20557;-80
2024/03/24 06:16:28;;;;;;;13.73;11.50;;;;;;;;;;5013914;28;20415;-79
2024/03/24 06:18:54;;;;;;;15.53;12.57;;;;;;;;;;5013513;28;20891;-80
2024/03/24 06:21:20;;;;;;;11.40;10.10;;;;;;;;;;5013870;28;20407;-79
2024/03/24 06:23:46;;;;;;;14.03;11.00;;;;;;;;;;5013725;28;20424;-78
2024/03/24 06:26:12;;;;;;;14.23;11.10;;;;;;;;;;5013864;28;20409;-78
2024/03/24 06:28:38;;;;;;;16.67;11.57;;;;;;;;;;5013571;28;20418;-82
2024/03/24 06:31:04;;;;;;;13.40;9.87;;;;;;;;;;5013727;28;20497;-80
2024/03/24 06:33:30;;;;;;;11.50;10.00;;;;;;;;;;5013249;28;20470;-78
2024/03/24 06:35:56;;;;;;;14.60;10.40;;;;;;;;;;5013528;28;20420;-82
2024/03/24 06:38:22;;;;;;;11.20;9.00;;;;;;;;;;5012316;28;20928;-76
2024/03/24 06:40:48;;;;;;;9.07;7.93;;;;;;;;;;5013447;28;20419;-77
2024/03/24 06:43:20;;;;;;;10.17;7.50;;;;;;;;;;5013554;28;20457;-78
2024/03/24 06:45:48;;;;;;;9.63;8.73;;;;;;;;;;5013633;28;20880;-78
2024/03/24 06:48:14;;;;;;;10.47;8.60;;;;;;;;;;5013082;28;20771;-81
2024/03/24 06:50:40;;;;;;;6.63;5.80;;;;;;;;;;5013419;28;20419;-78
2024/03/24 06:53:06;;;;;;;6.70;5.70;;;;;;;;;;5013355;28;20505;-81
2024/03/24 06:55:33;;;;;;;6.53;5.83;;;;;;;;;;5013784;28;20410;-79
2024/03/24 06:57:58;;;;;;;6.53;5.90;;;;;;;;;;5013494;28;20801;-80
2024/03/24 07:00:24;;;;;;;5.77;4.43;;;;;;;;;;5013388;28;20464;-78
2024/03/24 07:02:50;;;;;;;5.77;5.10;;;;;;;;;;5013306;28;20469;-78
2024/03/24 07:05:16;;;;;;;4.30;3.90;;;;;;;;;;5011652;28;20418;-77
2024/03/24 07:07:42;;;;;;;10.50;5.10;;;;;;;;;;5013355;28;20833;-79
2024/03/24 07:10:08;;;;;;;6.77;4.13;;;;;;;;;;5012053;28;20981;-77
2024/03/24 07:12:35;;;;;;;4.50;4.07;;;;;;;;;;5013069;28;20457;-77
2024/03/24 07:15:01;;;;;;;4.77;4.10;;;;;;;;;;5013039;28;20463;-77
2024/03/24 07:17:27;;;;;;;4.50;3.77;;;;;;;;;;5013230;28;20436;-79
2024/03/24 07:19:52;;;;;;;5.37;3.67;;;;;;;;;;5012788;28;20425;-78
2024/03/24 07:22:19;;;;;;;4.97;3.90;;;;;;;;;;5013207;28;20411;-80
2024/03/24 07:24:44;;;;;;;4.00;3.13;;;;;;;;;;5015475;28;20415;-81
2024/03/24 07:27:12;;;;;;;3.70;3.30;;;;;;;;;;5017268;28;20484;-81
2024/03/24 07:29:38;;;;;;;4.27;2.90;;;;;;;;;;5016102;28;20997;-80
2024/03/24 07:32:04;;;;;;;4.07;3.70;;;;;;;;;;5016983;28;20459;-79
2024/03/24 07:34:30;;;;;;;3.60;3.30;;;;;;;;;;5016650;28;21010;-81
2024/03/24 07:36:55;;;;;;;4.87;2.53;;;;;;;;;;5016937;28;20500;-81
2024/03/24 07:39:25;;;;;;;3.30;2.70;;;;;;;;;;5016884;28;20417;-81
2024/03/24 07:41:51;;;;;;;3.93;2.80;;;;;;;;;;5016845;28;20406;-80
2024/03/24 07:44:19;;;;;;;3.97;3.23;;;;;;;;;;5016814;28;20422;-81
2024/03/24 07:46:44;;;;;;;3.17;2.90;;;;;;;;;;5016613;28;20428;-80
2024/03/24 07:49:11;;;;;;;3.30;3.00;;;;;;;;;;5016252;28;20411;-79
2024/03/24 07:51:39;;;;;;;5.73;3.40;;;;;;;;;;5017067;28;20774;-78
2024/03/24 07:54:05;;;;;;;4.40;3.50;;;;;;;;;;5016584;28;20473;-79
2024/03/24 07:56:32;;;;;;;4.40;3.30;;;;;;;;;;5016555;28;20443;-81
2024/03/24 07:58:58;;;;;;;3.73;3.37;;;;;;;;;;5016556;28;20419;-81
2024/03/24 08:01:24;;;;;;;5.73;3.33;;;;;;;;;;5016321;28;20459;-79
2024/03/24 08:03:50;;;;;;;5.80;3.93;;;;;;;;;;5016607;28;20509;-80
2024/03/24 08:06:16;;;;;;;4.37;3.90;;;;;;;;;;5016426;28;20538;-79
2024/03/24 08:08:42;;;;;;;5.90;4.53;;;;;;;;;;5016378;28;20569;-81
2024/03/24 08:11:08;;;;;;;4.70;3.33;;;;;;;;;;5016174;28;20415;-80
2024/03/24 08:13:34;;;;;;;3.93;3.57;;;;;;;;;;5016098;28;20487;-78
2024/03/24 08:16:01;;;;;;;4.90;3.70;;;;;;;;;;5016160;28;20979;-79
2024/03/24 08:18:27;;;;;;;3.83;3.10;;;;;;;;;;5015793;28;20856;-77
2024/03/24 08:20:53;;;;;;;4.97;4.10;;;;;;;;;;5015986;28;20452;-79
2024/03/24 08:23:20;;;;;;;7.03;4.47;;;;;;;;;;5016147;28;20412;-79
2024/03/24 08:25:47;;;;;;;5.07;3.53;;;;;;;;;;5015846;28;20451;-78
2024/03/24 08:28:13;;;;;;;4.40;3.50;;;;;;;;;;5014375;28;20428;-79
2024/03/24 08:30:42;;;;;;;7.40;4.70;;;;;;;;;;5015854;28;20413;-79
2024/03/24 08:33:08;;;;;;;5.30;4.13;;;;;;;;;;5015382;28;20494;-80
2024/03/24 08:35:34;;;;;;;6.97;4.30;;;;;;;;;;5015047;28;20420;-80
2024/03/24 08:38:00;;;;;;;6.63;3.73;;;;;;;;;;5015806;28;20414;-78
2024/03/24 08:40:26;;;;;;;6.00;4.20;;;;;;;;;;5015824;28;20759;-81
2024/03/24 08:42:52;;;;;;;5.90;4.40;;;;;;;;;;5015661;28;20423;-79
2024/03/24 08:45:18;;;;;;;4.83;4.30;;;;;;;;;;5015689;28;20403;-81
2024/03/24 08:47:44;;;;;;;5.43;4.90;;;;;;;;;;5015508;28;20501;-80
2024/03/24 08:50:10;;;;;;;5.20;3.50;;;;;;;;;;5015540;28;20421;-77
2024/03/24 08:52:35;;;;;;;5.43;4.30;;;;;;;;;;5015452;28;20482;-79
2024/03/24 08:55:01;;;;;;;9.17;6.20;;;;;;;;;;5015477;28;20418;-79
2024/03/24 08:57:28;;;;;;;5.83;5.10;;;;;;;;;;5008328;28;20533;-77
2024/03/24 08:59:56;;;;;;;6.30;4.73;;;;;;;;;;5004330;28;20437;-78
2024/03/24 09:02:22;;;;;;;6.07;5.47;;;;;;;;;;4995525;28;20906;-80
2024/03/24 09:04:53;;;;;;;5.77;5.17;;;;;;;;;;5010309;28;20506;-79
2024/03/24 09:07:19;;;;;;;6.30;5.20;;;;;;;;;;4995570;28;20449;-78
2024/03/24 09:09:45;;;;;;;5.97;4.10;;;;;;;;;;4995523;28;20419;-77
2024/03/24 09:12:10;;;;;;;4.77;4.30;;;;;;;;;;4996010;28;20466;-79
2024/03/24 09:14:36;;;;;;;7.93;4.67;;;;;;;;;;4995694;28;20637;-80
2024/03/24 09:17:02;;;;;;;6.30;5.10;;;;;;;;;;5010725;28;20175;-79
2024/03/24 09:19:28;;;;;;;7.93;4.30;;;;;;;;;;4995166;28;20798;-78
2024/03/24 09:21:54;;;;;;;4.80;4.37;;;;;;;;;;4995265;28;20519;-81
2024/03/24 09:24:20;;;;;;;6.67;3.80;;;;;;;;;;4995189;28;20472;-79
2024/03/24 09:26:46;;;;;;;7.27;4.80;;;;;;;;;;5010240;28;20418;-79
2024/03/24 09:29:12;;;;;;;5.03;3.90;;;;;;;;;;4995206;28;20426;-79
2024/03/24 09:31:38;;;;;;;5.00;4.10;;;;;;;;;;4995075;28;20431;-79
2024/03/24 09:34:04;;;;;;;5.50;3.70;;;;;;;;;;5007173;28;20881;-79
2024/03/24 09:36:30;;;;;;;5.10;3.93;;;;;;;;;;5014453;28;20453;-80
2024/03/24 09:38:56;;;;;;;4.20;3.20;;;;;;;;;;5014984;28;20412;-79
2024/03/24 09:41:26;;;;;;;6.70;3.90;;;;;;;;;;5014503;28;20195;-78
2024/03/24 09:43:52;;;;;;;5.33;3.80;;;;;;;;;;5014460;28;20457;-79
2024/03/24 09:46:18;;;;;;;5.67;5.13;;;;;;;;;;5014735;28;20425;-79
2024/03/24 09:48:45;;;;;;;5.10;2.97;;;;;;;;;;5013955;28;20511;-80
2024/03/24 09:51:12;;;;;;;4.50;3.30;;;;;;;;;;5014335;28;20438;-79
2024/03/24 09:53:38;;;;;;;8.33;3.50;;;;;;;;;;5014182;28;20838;-78
2024/03/24 09:56:07;;;;;;;4.87;3.10;;;;;;;;;;5014195;28;20406;-78
2024/03/24 09:58:34;;;;;;;3.07;2.70;;;;;;;;;;5012809;28;20426;-79
2024/03/24 10:01:00;;;;;;;10.03;3.67;;;;;;;;;;5014121;28;20792;-80
2024/03/24 10:03:27;;;;;;;5.03;2.70;;;;;;;;;;5013719;28;20423;-79
2024/03/24 10:05:53;;;;;;;6.70;3.50;;;;;;;;;;5014116;28;20957;-78
2024/03/24 10:08:19;;;;;;;3.20;2.27;;;;;;;;;;5014123;28;20449;-79
2024/03/24 10:10:45;;;;;;;5.90;2.93;;;;;;;;;;5012838;28;20438;-77
2024/03/24 10:13:11;;;;;;;5.87;4.10;;;;;;;;;;5013679;28;20477;-80
2024/03/24 10:15:37;;;;;;;4.17;2.30;;;;;;;;;;5013350;28;20509;-78
2024/03/24 10:18:06;;;;;;;6.83;3.17;;;;;;;;;;5012067;28;20938;-80
2024/03/24 10:20:33;;;;;;;4.43;3.00;;;;;;;;;;5012326;28;20418;-79
2024/03/24 10:22:59;;;;;;;4.33;3.87;;;;;;;;;;5013468;28;20437;-81
2024/03/24 10:25:32;;;;;;;5.37;4.77;;;;;;;;;;5012218;28;20420;-78
2024/03/24 10:27:59;;;;;;;5.93;3.57;;;;;;;;;;5013758;28;20405;-78
2024/03/24 10:30:25;;;;;;;4.90;4.10;;;;;;;;;;5013348;28;20418;-79
2024/03/24 10:32:51;;;;;;;4.43;3.70;;;;;;;;;;5013019;28;20549;-79
2024/03/24 10:35:18;;;;;;;6.57;3.20;;;;;;;;;;5013310;28;20430;-78
2024/03/24 10:37:44;;;;;;;4.20;2.60;;;;;;;;;;5013228;28;20497;-79
2024/03/24 10:40:14;;;;;;;2.97;1.80;;;;;;;;;;5013365;28;20443;-79
2024/03/24 10:42:47;;;;;;;5.77;3.23;;;;;;;;;;5013190;28;20480;-80
2024/03/24 10:45:14;;;;;;;2.73;1.90;;;;;;;;;;5007145;28;20500;-79
2024/03/24 10:47:40;;;;;;;4.00;2.00;;;;;;;;;;5012664;28;20752;-80
2024/03/24 10:50:06;;;;;;;4.40;1.00;;;;;;;;;;5028268;28;20424;-82
2024/03/24 10:52:36;;;;;;;5.93;1.47;;;;;;;;;;5013125;28;20479;-80
2024/03/24 10:55:03;;;;;;;2.67;0.90;;;;;;;;;;5013157;28;20421;-78
2024/03/24 10:57:29;;;;;;;1.73;1.20;;;;;;;;;;5013140;28;20843;-78
2024/03/24 10:59:57;;;;;;;5.40;1.10;;;;;;;;;;5012928;28;20908;-78
2024/03/24 11:02:24;;;;;;;4.03;1.67;;;;;;;;;;5012838;28;20445;-77
2024/03/24 11:04:51;;;;;;;3.43;2.27;;;;;;;;;;5013306;28;20555;-77
2024/03/24 11:07:17;;;;;;;2.60;1.63;;;;;;;;;;5013161;28;20414;-77
2024/03/24 11:09:43;;;;;;;4.40;1.90;;;;;;;;;;5013163;28;20415;-80
2024/03/24 11:12:11;;;;;;;3.47;2.50;;;;;;;;;;5028314;28;20469;-75
2024/03/24 11:14:37;;;;;;;3.43;2.70;;;;;;;;;;5012460;28;21007;-76
2024/03/24 11:17:03;;;;;;;3.50;2.20;;;;;;;;;;5004241;28;20445;-76
2024/03/24 11:19:29;;;;;;;3.30;2.87;;;;;;;;;;5014661;28;20783;-76
2024/03/24 11:21:57;;;;;;;3.70;2.20;;;;;;;;;;5000147;28;20478;-76
2024/03/24 11:24:24;;;;;;;3.90;2.03;;;;;;;;;;5001301;28;20456;-76
2024/03/24 11:26:51;;;;;;;1.80;1.03;;;;;;;;;;4993233;28;20422;-76
2024/03/24 11:29:35;;;;;;;3.47;1.47;;;;;;;;;;4993193;28;20418;-76
2024/03/24 11:32:01;;;;;;;3.17;0.97;;;;;;;;;;5008279;28;20419;-75
2024/03/24 11:34:27;;;;;;;2.60;1.27;;;;;;;;;;4992661;28;20420;-76
2024/03/24 11:36:53;;;;;;;2.67;1.40;;;;;;;;;;4993159;28;20938;-76
2024/03/24 11:39:19;;;;;;;1.97;0.90;;;;;;;;;;4993218;28;20175;-77
2024/03/24 11:41:52;;;;;;;2.87;1.20;;;;;;;;;;4993123;28;20410;-76
2024/03/24 11:44:18;;;;;;;4.33;1.87;;;;;;;;;;4993108;28;20426;-75
2024/03/24 11:46:44;;;;;;;1.73;0.70;;;;;;;;;;4992817;28;20411;-75
2024/03/24 11:49:12;;;;;;;2.90;0.60;;;;;;;;;;4990684;28;20419;-76
2024/03/24 11:51:38;;;;;;;3.07;0.90;;;;;;;;;;4991435;28;20844;-77
2024/03/24 11:54:04;;;;;;;2.60;1.20;;;;;;;;;;4993034;28;20565;-75
2024/03/24 11:56:32;;;;;;;1.83;0.80;;;;;;;;;;4992909;28;20419;-76
2024/03/24 11:58:58;;;;;;;3.90;1.53;;;;;;;;;;4992016;28;20783;-76
2024/03/24 12:01:24;;;;;;;3.27;1.10;;;;;;;;;;4993052;28;20416;-76
2024/03/24 12:03:50;;;;;;;3.80;1.30;;;;;;;;;;4997924;28;20431;-76
2024/03/24 12:06:17;;;;;;;4.10;1.40;;;;;;;;;;5012183;28;20418;-76
2024/03/24 12:08:45;;;;;;;2.33;0.77;;;;;;;;;;5012496;28;21111;-76
2024/03/24 12:11:11;;;;;;;3.30;1.30;;;;;;;;;;5013827;28;20417;-76
2024/03/24 12:13:37;;;;;;;2.13;0.93;;;;;;;;;;5015914;28;20467;-82
2024/03/24 12:16:06;;;;;;;2.03;0.90;;;;;;;;;;5028481;28;20528;-77
2024/03/24 12:18:32;;;;;;;3.93;1.50;;;;;;;;;;5004942;28;20433;-77
2024/03/24 12:21:02;;;;;;;1.80;0.70;;;;;;;;;;5011752;28;20430;-78
2024/03/24 12:23:29;;;;;;;3.67;0.80;;;;;;;;;;4996646;28;20473;-77
2024/03/24 12:25:55;;;;;;;2.00;0.70;;;;;;;;;;4996553;28;20500;-79
2024/03/24 12:28:21;;;;;;;1.50;0.50;;;;;;;;;;5014507;28;20941;-79
2024/03/24 12:30:51;;;;;;;1.23;0.30;;;;;;;;;;5016222;28;20411;-76
2024/03/24 12:33:18;;;;;;;1.50;0.63;;;;;;;;;;5015503;28;20485;-78
2024/03/24 12:35:44;;;;;;;1.27;0.50;;;;;;;;;;5015727;28;20492;-82
2024/03/24 12:38:10;;;;;;;1.07;0.30;;;;;;;;;;5014080;28;20526;-80
2024/03/24 12:40:36;;;;;;;1.07;0.40;;;;;;;;;;5014729;28;20491;-80
2024/03/24 12:43:11;;;;;;;2.03;0.40;;;;;;;;;;5015486;28;20415;-78
2024/03/24 12:45:38;;;;;;;1.07;0.33;;;;;;;;;;5014759;28;21159;-79
2024/03/24 12:48:10;;;;;;;5.00;0.83;;;;;;;;;;5014008;28;20472;-77
2024/03/24 12:50:36;;;;;;;0.40;0.30;;;;;;;;;;5015667;28;20423;-82
2024/03/24 12:53:21;;;;;;;1.50;0.23;;;;;;;;;;5015336;28;20484;-78
2024/03/24 12:55:48;;;;;;;1.17;0.30;;;;;;;;;;5015429;28;20449;-81
2024/03/24 12:58:14;;;;;;;1.23;0.73;;;;;;;;;;5015514;28;20394;-78
2024/03/24 13:00:43;;;;;;;0.90;0.20;;;;;;;;;;5015306;28;20418;-76
2024/03/24 13:03:10;;;;;;;2.13;0.60;;;;;;;;;;5014850;28;20395;-77
2024/03/24 13:05:36;;;;;;;1.40;0.30;;;;;;;;;;5015165;28;20422;-78
2024/03/24 13:08:04;;;;;;;1.80;0.50;;;;;;;;;;5015423;28;20456;-78
2024/03/24 13:10:30;;;;;;;1.03;0.20;;;;;;;;;;5015582;28;20762;-77
2024/03/24 13:12:55;;;;;;;1.63;0.30;;;;;;;;;;5015022;28;20996;-77
2024/03/24 13:15:22;;;;;;;1.80;0.40;;;;;;;;;;5013759;28;20465;-75
2024/03/24 13:17:50;;;;;;;2.40;0.63;;;;;;;;;;5006125;28;20479;-79
2024/03/24 13:20:16;;;;;;;0.93;0.50;;;;;;;;;;4995463;28;20411;-77
2024/03/24 13:22:43;;;;;;;1.70;0.40;;;;;;;;;;4994952;28;20421;-79
2024/03/24 13:25:10;;;;;;;3.93;1.03;;;;;;;;;;5010415;28;20416;-76
2024/03/24 13:27:42;;;;;;;1.57;0.63;;;;;;;;;;4995566;28;20424;-76
2024/03/24 13:30:08;;;;;;;1.70;0.30;;;;;;;;;;4998952;28;20460;-79
2024/03/24 13:32:34;;;;;;;0.77;0.70;;;;;;;;;;5013959;28;20460;-76
2024/03/24 13:35:00;;;;;;;2.10;0.73;;;;;;;;;;5014522;28;20416;-76
2024/03/24 13:37:45;;;;;;;2.27;0.50;;;;;;;;;;5013317;28;20514;-76
2024/03/24 13:40:31;;;;;;;3.97;1.00;;;;;;;;;;5013258;28;20503;-76
2024/03/24 13:43:15;;;;;;;2.10;0.60;;;;;;;;;;5014323;28;20426;-76
2024/03/24 13:45:51;;;;;;;2.10;0.63;;;;;;;;;;5014385;28;20513;-77
2024/03/24 13:48:17;;;;;;;2.50;1.23;;;;;;;;;;5014060;28;20424;-76
2024/03/24 13:50:44;;;;;;;1.90;0.80;;;;;;;;;;5014260;28;20424;-76
2024/03/24 13:53:11;;;;;;;2.80;1.57;;;;;;;;;;5012880;28;20612;-76
2024/03/24 13:55:37;;;;;;;3.40;0.80;;;;;;;;;;5014274;28;20807;-78
2024/03/24 13:58:04;;;;;;;3.60;0.90;;;;;;;;;;5014216;28;20744;-77
2024/03/24 14:00:30;;;;;;;3.03;0.80;;;;;;;;;;5012736;28;20490;-77
2024/03/24 14:02:57;;;;;;;1.73;0.80;;;;;;;;;;5013652;28;20423;-75
2024/03/24 14:05:24;;;;;;;3.10;0.40;;;;;;;;;;5014065;28;20484;-75
2024/03/24 14:07:50;;;;;;;2.30;0.60;;;;;;;;;;5012935;28;20406;-79
2024/03/24 14:10:16;;;;;;;2.00;0.43;;;;;;;;;;5013981;28;20414;-80
2024/03/24 14:12:51;;;;;;;2.30;0.60;;;;;;;;;;5013664;28;20492;-77
2024/03/24 14:15:23;;;;;;;1.80;1.37;;;;;;;;;;5012607;28;20477;-77
2024/03/24 14:18:15;;;;;;;1.20;0.90;;;;;;;;;;5001657;28;20418;-81
2024/03/24 14:20:48;;;;;;;1.33;0.70;;;;;;;;;;5010153;28;20421;-76
2024/03/24 14:23:28;;;;;;;0.80;0.30;;;;;;;;;;5013597;28;20402;-77
2024/03/24 14:26:00;;;;;;;1.00;0.50;;;;;;;;;;5013655;28;20430;-77
2024/03/24 14:28:27;;;;;;;0.60;0.30;;;;;;;;;;5013197;28;20421;-77
2024/03/24 14:30:53;;;;;;;4.67;0.50;;;;;;;;;;5013170;28;20412;-79
2024/03/24 14:33:19;;;;;;;0.70;0.30;;;;;;;;;;5012361;28;20480;-77
2024/03/24 14:35:56;;;;;;;1.73;0.47;;;;;;;;;;5012859;28;20778;-78